Terminal Aerodrome Forecast
Issued by NWS Wilmington, NC

Home | Current Version | Previous Version | Text Only | Print | Product List | Glossary On
Versions: 1 2 3 4 5 6 7 8 9 10 11 12 13
000
FTUS42 KILM 302300
TAFFLO
TAF
KFLO 302321Z 3100/3124 17004KT P6SM FEW100
     FM310800 00000KT 4SM BR FEW006 BKN015
      TEMPO 3110/3113 2SM BR BKN006
     FM311500 19006KT P6SM FEW020 SCT050=

USA.gov is the U.S. government's official web portal to all federal, state and local government web resources and services.